Impacts TAF Board
For situational awareness. Not to be used for flight planning purposes.
IDs:

KCLE - Cleveland/Hopkins In, OH, US

Issued at 1941 UTC 20 Sep 2018
Updated at 1959 UTC 20 Sep 2018
Potential Impact None Slight Moderate High
Time1951Z 20/20Z 20/21Z 20/22Z 20/23Z 21/00Z 21/01Z 21/02Z 21/03Z 21/04Z 21/05Z 21/06Z 21/07Z 21/08Z>>
Type OBS PRVL PRVL PRVL PRVL PRVL PRVL PRVL PRVL PRVL PRVL PRVL PRVL PRVL
VIS 10 >6 >6 >6 >6 >6 >6 >6 >6 >6 >6 >6 >6 >6
CIG 65 -- -- -- -- -- -- -- -- -- -- -- -- --
Cover BKN SCT SCT SCT SCT SCT SCT SCT SCT SCT SCT SCT SCT SCT
FltCat VFR VFR VFR VFR VFR VFR VFR VFR VFR VFR VFR VFR VFR VFR
WX TS -- -- -- -- -- -- -- -- -- -- -- -- --
WDir VRB 170 170 170 220 220 220 220 220 220 220 220 220 220
WSpd 5 10 10 10 14 14 14 14 14 14 14 14 14 14
WGst -- -- -- -- -- -- -- -- -- -- -- -- -- --
Raw TAF
KCLE 201941Z 2020/2124 17010KT P6SM SCT040
  FM202300 22014KT P6SM SCT100
  FM211400 22012G20KT P6SM SCT045
  FM211800 24015G25KT P6SM BKN040


Raw METAR
KCLE 201951Z VRB05KT 10SM TS FEW040 FEW050CB BKN065 28/20 A3006 RMK AO2 LTG DSNT E AND SE RAE1852 SLP173 OCNL LTGICCCCG SE-SW TS SE-SW MOV E P0000 T02780200
KCLE 201851Z 00000KT 10SM -TSRA SCT038 BKN048CB BKN065 BKN250 26/21 A3008 RMK AO2 RAB16 TSB14 SLP182 OCNL LTGICCCCG SE-SW TS SE-SW MOV E P0000 T02610206
KCLE 201817Z 03008KT 10SM -TSRA SCT039 BKN049CB BKN060 BKN250 24/21 A3009 RMK AO2 RAB16 TSB14 OCNL LTGICCCCG E AND W TS E AND W MOV E P0000 T02440206 $
KCLE 201751Z 02011KT 10SM FEW035 SCT049 BKN060 BKN250 26/21 A3009 RMK AO2 LTG DSNT NE AND E SLP186 T02560206 10306 20183 55009 $
KCLE 201651Z 19010KT 10SM FEW045 SCT095 SCT250 29/21 A3009 RMK AO2 SLP185 T02940211 $

METAR Board
Radar Display
Forecast Discussion
For situational awareness. Not to be used for flight planning purposes.